Pagina principale
METAR-TAF:

METAR-TAF

Aeroporti :

Sarzana, Italia

Luni

latitudine: 44-05N, longitudine: 009-59E, altezza: 9 m

Osservazione

Il bollettino è stato emesso 48 minuti fa, alle 05:55 UTC
Vento 6 kt da nord-ovest
Temperature 19°C
Umidità 83%
Pressione 1006 hPa
Visibilità 10 km o più
Poco nuvoloso ad un'altezza di 4000 ft

METAR: LIQW 260555Z 32006KT 9999 FEW040 19/16 Q1006 RMK SCT SCT070 VIS MIN 9999 WIND THR18 31006KT BLU

Ora: 08:43 (06:43 UTC)


TAF: mancante

Osservazioni e previsioni meteorologiche di più di 4000 aeroporti (messaggi METAR e TAF).

Le stazioni disponibili sono rappresentate dai dischi gialli e rossi sulla carta.

Puntare il mouse per vedere il nome della stazione.

Clicca sopra per visualizzare le osservazioni e previsioni meteorologiche.

Per cambiare la mappa : fare clic sui pulsanti verdi con una croce nera per ingrandire, il pulsante verde con un trattino per diminuire, o sulla freccia verde per le mappe adiacenti.


METAR-TAF: